createdAt,value
2022-10-24T00:00:46.616Z,22.30
2022-10-24T00:03:14.832Z,22.90
2022-10-24T00:05:44.739Z,22.13
2022-10-24T00:08:12.897Z,23.43
2022-10-24T00:10:43.962Z,24.70
2022-10-24T00:13:12.208Z,22.53
2022-10-24T00:15:40.419Z,24.70
2022-10-24T00:18:08.656Z,23.33
2022-10-24T00:20:37.264Z,23.50
2022-10-24T00:23:07.207Z,24.00
2022-10-24T00:25:35.268Z,25.43
2022-10-24T00:28:03.712Z,26.80
2022-10-24T00:30:31.804Z,26.23
2022-10-24T00:32:59.931Z,24.27
2022-10-24T00:35:28.127Z,25.27
2022-10-24T00:37:56.422Z,25.80
2022-10-24T00:40:26.036Z,27.53
2022-10-24T00:42:54.757Z,26.13
2022-10-24T00:45:47.674Z,23.23
2022-10-24T00:48:22.081Z,23.37
2022-10-24T00:50:51.180Z,25.03
2022-10-24T00:53:19.357Z,24.30
2022-10-24T00:55:50.937Z,24.67
2022-10-24T00:58:19.619Z,24.13
2022-10-24T01:00:47.751Z,25.20
2022-10-24T01:03:16.017Z,25.80
2022-10-24T01:06:03.843Z,23.70
2022-10-24T01:08:34.477Z,24.13
2022-10-24T01:11:07.798Z,26.10
2022-10-24T01:13:40.663Z,26.17
2022-10-24T01:16:12.456Z,25.03
2022-10-24T01:18:43.631Z,24.20
2022-10-24T01:21:24.893Z,23.67
2022-10-24T01:24:34.815Z,23.67
2022-10-24T01:27:34.093Z,23.70
2022-10-24T01:30:08.598Z,23.33
2022-10-24T01:32:40.377Z,23.90
2022-10-24T01:35:13.621Z,22.93
2022-10-24T01:37:44.416Z,22.57
2022-10-24T01:40:14.758Z,22.57
2022-10-24T01:42:42.855Z,24.37
2022-10-24T01:45:14.929Z,22.87
2022-10-24T01:47:45.315Z,23.47
2022-10-24T01:50:14.583Z,24.80
2022-10-24T01:52:44.720Z,23.17
2022-10-24T01:55:13.130Z,24.40
2022-10-24T01:57:42.693Z,24.17
2022-10-24T02:00:16.172Z,24.90
2022-10-24T02:02:45.835Z,22.60
2022-10-24T02:05:16.172Z,24.13
2022-10-24T02:07:44.980Z,26.73
2022-10-24T02:10:15.254Z,27.90
2022-10-24T02:12:45.096Z,28.43
2022-10-24T02:15:18.016Z,29.37
2022-10-24T02:17:46.494Z,27.97
2022-10-24T02:20:15.097Z,27.37
2022-10-24T02:22:46.691Z,26.67
2022-10-24T02:25:17.701Z,26.97
2022-10-24T02:27:49.861Z,25.70
2022-10-24T02:30:20.455Z,24.43
2022-10-24T02:32:50.041Z,24.00
2022-10-24T02:35:19.224Z,23.10
2022-10-24T02:37:49.023Z,24.20
2022-10-24T02:40:17.718Z,24.77
2022-10-24T02:42:45.991Z,25.93
2022-10-24T02:45:14.389Z,27.43
2022-10-24T02:47:44.699Z,25.93
2022-10-24T02:50:13.133Z,25.23
2022-10-24T02:52:42.300Z,26.67
2022-10-24T02:55:11.896Z,26.53
2022-10-24T02:57:40.167Z,25.93
2022-10-24T03:00:09.693Z,26.17
2022-10-24T03:02:37.785Z,26.70
2022-10-24T03:05:08.384Z,25.63
2022-10-24T03:07:36.519Z,25.87
2022-10-24T03:10:04.949Z,24.77
2022-10-24T03:12:33.157Z,26.77
2022-10-24T03:15:01.432Z,25.63
2022-10-24T03:17:29.663Z,27.50
2022-10-24T03:19:58.035Z,25.10
2022-10-24T03:22:30.587Z,23.53
2022-10-24T03:25:01.952Z,24.93
2022-10-24T03:27:30.447Z,26.00
2022-10-24T03:29:58.552Z,26.70
2022-10-24T03:34:59.927Z,28.47
2022-10-24T03:37:29.528Z,28.63
2022-10-24T03:39:57.668Z,29.23
2022-10-24T03:42:25.876Z,30.03
2022-10-24T03:44:54.081Z,34.63
2022-10-24T03:47:22.325Z,35.27
2022-10-24T03:49:50.487Z,36.07
2022-10-24T03:52:19.082Z,36.20
2022-10-24T03:54:48.628Z,37.70
2022-10-24T03:57:16.886Z,39.77
2022-10-24T03:59:45.158Z,42.43
2022-10-24T04:02:14.147Z,43.50
2022-10-24T04:04:42.493Z,39.17
2022-10-24T04:07:10.729Z,40.93
2022-10-24T04:09:38.810Z,41.60
2022-10-24T04:12:08.747Z,43.30
2022-10-24T04:14:37.067Z,45.47
2022-10-24T04:17:05.396Z,45.30
2022-10-24T04:19:33.542Z,45.83
2022-10-24T04:22:01.872Z,43.47
2022-10-24T04:24:29.978Z,43.53
2022-10-24T04:26:58.142Z,42.40
2022-10-24T04:29:27.788Z,41.60
2022-10-24T04:31:55.936Z,38.37
2022-10-24T04:34:24.135Z,37.67
2022-10-24T04:36:52.282Z,33.97
2022-10-24T04:39:20.870Z,34.53
2022-10-24T04:41:49.125Z,33.50
2022-10-24T04:44:17.278Z,30.73
2022-10-24T04:46:50.604Z,28.50
2022-10-24T04:49:19.591Z,28.63
2022-10-24T04:51:48.042Z,28.30
2022-10-24T04:54:16.242Z,28.07
2022-10-24T04:56:44.440Z,28.07
2022-10-24T04:59:12.719Z,29.03
2022-10-24T05:01:40.981Z,29.57
2022-10-24T05:04:10.616Z,26.83
2022-10-24T05:06:40.360Z,26.73
2022-10-24T05:09:11.042Z,26.57
2022-10-24T05:11:39.241Z,27.43
2022-10-24T05:14:07.321Z,27.63
2022-10-24T05:16:35.639Z,25.40
2022-10-24T05:19:03.846Z,25.83
2022-10-24T05:21:34.084Z,24.63
2022-10-24T05:24:02.214Z,23.47
2022-10-24T05:26:30.416Z,23.70
2022-10-24T05:28:58.543Z,23.00
2022-10-24T05:31:26.846Z,22.10
2022-10-24T05:33:55.009Z,22.03
2022-10-24T05:36:23.179Z,21.00
2022-10-24T05:38:52.651Z,19.17
2022-10-24T05:41:21.027Z,18.57
2022-10-24T05:43:49.089Z,18.33
2022-10-24T05:46:17.275Z,15.93
2022-10-24T05:48:45.423Z,16.73
2022-10-24T05:51:13.631Z,14.33
2022-10-24T05:53:41.692Z,14.17
2022-10-24T05:56:11.513Z,13.93
2022-10-24T05:58:39.726Z,12.40
2022-10-24T06:01:08.378Z,13.20
2022-10-24T06:03:36.805Z,13.00
2022-10-24T06:06:06.307Z,13.57
2022-10-24T06:08:35.402Z,12.73
2022-10-24T06:11:03.711Z,12.13
2022-10-24T06:13:36.069Z,12.30
2022-10-24T06:16:04.778Z,11.77
2022-10-24T06:18:32.880Z,12.33
2022-10-24T06:21:01.577Z,11.10
2022-10-24T06:23:29.659Z,11.53
2022-10-24T06:25:57.744Z,9.97
2022-10-24T06:28:25.994Z,10.63
2022-10-24T06:30:55.534Z,9.30
2022-10-24T06:33:23.653Z,10.87
2022-10-24T06:35:54.407Z,10.57
2022-10-24T06:38:22.763Z,11.13
2022-10-24T06:40:51.035Z,11.47
2022-10-24T06:43:19.703Z,12.60
2022-10-24T06:45:47.805Z,13.87
2022-10-24T06:48:17.392Z,13.03
2022-10-24T06:50:45.479Z,12.63
2022-10-24T06:53:13.869Z,11.90
2022-10-24T06:55:41.960Z,11.43
2022-10-24T06:58:10.099Z,12.37
2022-10-24T07:00:39.421Z,11.73
2022-10-24T07:03:07.677Z,12.13
2022-10-24T07:05:38.556Z,12.90
2022-10-24T07:08:07.297Z,13.13
2022-10-24T07:10:35.486Z,11.93
2022-10-24T07:13:03.544Z,12.33
2022-10-24T07:15:31.628Z,12.23
2022-10-24T07:17:59.745Z,11.53
2022-10-24T07:20:27.980Z,12.53
2022-10-24T07:22:57.498Z,12.57
2022-10-24T07:25:25.548Z,12.87
2022-10-24T07:27:54.785Z,14.97
2022-10-24T07:30:22.976Z,14.80
2022-10-24T07:32:51.104Z,12.67
2022-10-24T07:35:19.220Z,12.93
2022-10-24T07:37:47.576Z,11.37
2022-10-24T07:40:17.301Z,11.63
2022-10-24T07:42:45.476Z,13.10
2022-10-24T07:45:13.819Z,12.97
2022-10-24T07:47:42.149Z,12.37
2022-10-24T07:50:10.829Z,11.90
2022-10-24T07:52:38.886Z,11.77
2022-10-24T07:55:07.617Z,11.30
2022-10-24T07:57:37.108Z,9.90
2022-10-24T08:00:06.185Z,10.17
2022-10-24T08:02:34.466Z,11.43
2022-10-24T08:05:02.542Z,11.07
2022-10-24T08:07:30.669Z,10.03
2022-10-24T08:09:58.744Z,10.63
2022-10-24T08:12:26.823Z,10.27
2022-10-24T08:14:56.278Z,11.67
2022-10-24T08:17:24.794Z,11.77
2022-10-24T08:19:53.070Z,10.40
2022-10-24T08:22:21.223Z,9.90
2022-10-24T08:24:49.504Z,10.10
2022-10-24T08:27:17.611Z,11.07
2022-10-24T08:29:45.773Z,12.13
2022-10-24T08:32:15.222Z,11.17
2022-10-24T08:34:43.346Z,11.50
2022-10-24T08:37:11.459Z,10.13
2022-10-24T08:39:39.683Z,8.93
2022-10-24T08:42:09.100Z,8.60
2022-10-24T08:44:38.105Z,9.13
2022-10-24T08:47:10.075Z,8.43
2022-10-24T08:49:43.263Z,8.10
2022-10-24T08:52:18.274Z,8.40
2022-10-24T08:54:48.425Z,8.83
2022-10-24T08:57:21.237Z,7.87
2022-10-24T08:59:49.325Z,7.00
2022-10-24T09:02:19.701Z,7.50
2022-10-24T09:04:51.496Z,8.50
2022-10-24T09:07:20.660Z,7.43
2022-10-24T09:09:51.131Z,7.60
2022-10-24T09:12:19.994Z,7.93
2022-10-24T09:14:50.884Z,7.50
2022-10-24T09:17:20.957Z,7.27
2022-10-24T09:19:52.017Z,6.13
2022-10-24T09:22:20.174Z,6.60
2022-10-24T09:24:50.606Z,6.53
2022-10-24T09:29:53.687Z,6.50
2022-10-24T09:32:22.919Z,6.17
2022-10-24T09:34:52.425Z,5.20
2022-10-24T09:37:39.198Z,4.93
2022-10-24T09:40:21.079Z,5.07
2022-10-24T09:42:51.774Z,5.33
2022-10-24T09:45:31.911Z,5.17
2022-10-24T09:48:01.216Z,6.20
2022-10-24T09:50:30.700Z,5.03
2022-10-24T09:52:59.409Z,5.50
2022-10-24T09:55:28.835Z,5.20
2022-10-24T09:57:58.188Z,5.50
2022-10-24T10:00:28.075Z,5.00
2022-10-24T10:03:04.024Z,5.10
2022-10-24T10:05:46.810Z,5.40
2022-10-24T10:08:19.651Z,5.30
2022-10-24T10:10:59.926Z,5.40
2022-10-24T10:13:28.904Z,5.40
2022-10-24T10:15:57.836Z,5.67
2022-10-24T10:18:33.986Z,5.43
2022-10-24T10:21:06.807Z,5.93
2022-10-24T10:23:36.421Z,5.70
2022-10-24T10:26:27.392Z,6.03
2022-10-24T10:29:01.444Z,6.00
2022-10-24T10:31:35.542Z,5.43
2022-10-24T10:34:14.150Z,5.63
2022-10-24T10:37:02.642Z,5.60
2022-10-24T10:39:45.316Z,5.17
2022-10-24T10:42:16.162Z,5.50
2022-10-24T10:44:50.391Z,6.13
2022-10-24T10:47:26.750Z,6.23
2022-10-24T10:49:57.226Z,6.00
2022-10-24T10:52:31.299Z,5.37
2022-10-24T10:55:14.735Z,5.37
2022-10-24T10:57:45.899Z,5.23
2022-10-24T11:00:15.903Z,5.00
2022-10-24T11:03:08.346Z,5.73
2022-10-24T11:05:45.007Z,5.23
2022-10-24T11:08:33.508Z,5.40
2022-10-24T11:11:03.561Z,5.57
2022-10-24T11:13:34.321Z,5.17
2022-10-24T11:16:03.396Z,4.97
2022-10-24T11:18:35.331Z,4.40
2022-10-24T11:21:05.241Z,4.70
2022-10-24T11:23:37.092Z,5.13
2022-10-24T11:26:07.622Z,5.40
2022-10-24T11:28:40.118Z,5.13
2022-10-24T11:31:09.470Z,5.57
2022-10-24T11:33:47.698Z,5.63
2022-10-24T11:36:19.752Z,5.03
2022-10-24T11:38:52.191Z,5.00
2022-10-24T11:41:32.397Z,5.17
2022-10-24T11:44:02.431Z,4.50
2022-10-24T11:46:34.271Z,3.73
2022-10-24T11:49:04.472Z,4.23
2022-10-24T11:51:34.609Z,4.30
2022-10-24T11:54:05.465Z,4.07
2022-10-24T11:56:37.236Z,4.60
2022-10-24T11:59:06.112Z,4.30
2022-10-24T12:01:53.437Z,4.60
2022-10-24T12:04:49.335Z,4.87
2022-10-24T12:07:46.398Z,4.90
2022-10-24T12:10:30.998Z,5.20
2022-10-24T12:13:20.236Z,5.73
2022-10-24T12:15:49.827Z,5.50
2022-10-24T12:18:27.905Z,5.97
2022-10-24T12:20:56.798Z,6.17
2022-10-24T12:23:27.644Z,5.87
2022-10-24T12:26:19.555Z,6.83
2022-10-24T12:28:55.239Z,6.10
2022-10-24T12:31:26.440Z,5.57
2022-10-24T12:34:32.851Z,5.10
2022-10-24T12:37:05.723Z,5.40
2022-10-24T12:39:34.819Z,6.27
2022-10-24T12:42:04.547Z,6.60
2022-10-24T12:44:43.242Z,7.03
2022-10-24T12:47:39.268Z,5.90
2022-10-24T12:50:44.577Z,6.63
2022-10-24T12:53:19.658Z,7.00
2022-10-24T12:56:21.065Z,6.17
2022-10-24T12:59:01.419Z,5.87
2022-10-24T13:01:33.543Z,6.07
2022-10-24T13:04:24.638Z,6.10
2022-10-24T13:07:18.275Z,6.50
2022-10-24T13:09:50.505Z,5.63
2022-10-24T13:12:31.220Z,6.23
2022-10-24T13:15:15.001Z,5.40
2022-10-24T13:17:45.398Z,4.97
2022-10-24T13:20:18.125Z,4.73
2022-10-24T13:22:46.777Z,5.43
2022-10-24T13:25:22.217Z,5.43
2022-10-24T13:28:25.768Z,5.77
2022-10-24T13:31:30.161Z,6.33
2022-10-24T13:34:27.945Z,6.30
2022-10-24T13:37:18.233Z,6.43
2022-10-24T13:39:48.249Z,5.73
2022-10-24T13:42:25.194Z,6.27
2022-10-24T13:44:55.984Z,6.63
2022-10-24T13:47:27.078Z,7.40
2022-10-24T13:49:57.540Z,6.43
2022-10-24T13:52:30.513Z,7.80
2022-10-24T13:55:01.903Z,6.60
2022-10-24T13:57:33.787Z,5.90
2022-10-24T14:00:02.707Z,6.60
2022-10-24T14:02:34.006Z,6.50
2022-10-24T14:05:02.444Z,6.10
2022-10-24T14:07:31.498Z,6.10
2022-10-24T14:10:01.271Z,6.10
2022-10-24T14:12:31.162Z,5.80
2022-10-24T14:15:00.994Z,5.87
2022-10-24T14:17:30.861Z,6.37
2022-10-24T14:20:01.308Z,6.60
2022-10-24T14:22:30.670Z,6.03
2022-10-24T14:24:58.773Z,5.77
2022-10-24T14:27:26.941Z,5.73
2022-10-24T14:30:00.421Z,6.00
2022-10-24T14:32:29.018Z,6.00
2022-10-24T14:34:57.765Z,6.13
2022-10-24T14:37:34.542Z,6.87
2022-10-24T14:40:02.795Z,5.77
2022-10-24T14:42:30.929Z,6.70
2022-10-24T14:45:00.066Z,6.40
2022-10-24T14:47:30.392Z,6.43
2022-10-24T14:49:58.716Z,6.90
2022-10-24T14:52:28.538Z,7.43
2022-10-24T14:55:01.246Z,7.40
2022-10-24T14:57:30.005Z,6.90
2022-10-24T14:59:58.682Z,6.90
2022-10-24T15:02:28.585Z,6.90
2022-10-24T15:05:14.973Z,7.60
2022-10-24T15:07:57.108Z,7.23
2022-10-24T15:10:38.132Z,7.23
2022-10-24T15:13:12.330Z,7.33
2022-10-24T15:15:53.457Z,7.00
2022-10-24T15:18:22.784Z,7.60
2022-10-24T15:20:52.154Z,7.17
2022-10-24T15:23:22.376Z,7.43
2022-10-24T15:26:01.180Z,6.90
2022-10-24T15:28:43.833Z,7.67
2022-10-24T15:31:12.150Z,7.35
2022-10-24T15:36:22.925Z,6.80
2022-10-24T15:38:54.850Z,7.23
2022-10-24T15:41:24.473Z,7.83
2022-10-24T15:43:52.635Z,8.00
2022-10-24T15:46:22.044Z,8.47
2022-10-24T15:48:50.398Z,8.00
2022-10-24T15:51:19.483Z,7.17
2022-10-24T15:53:48.145Z,8.43
2022-10-24T15:56:16.192Z,7.40
2022-10-24T15:58:45.759Z,8.20
2022-10-24T16:01:24.397Z,6.60
2022-10-24T16:03:52.591Z,7.33
2022-10-24T16:06:22.038Z,6.90
2022-10-24T16:08:50.285Z,7.77
2022-10-24T16:11:18.724Z,7.93
2022-10-24T16:13:48.390Z,7.73
2022-10-24T16:16:16.623Z,8.13
2022-10-24T16:18:44.800Z,7.93
2022-10-24T16:21:14.194Z,8.57
2022-10-24T16:23:42.535Z,8.73
2022-10-24T16:26:10.860Z,9.57
2022-10-24T16:28:39.152Z,9.77
2022-10-24T16:31:09.556Z,9.53
2022-10-24T16:33:37.994Z,11.10
2022-10-24T16:36:06.714Z,9.60
2022-10-24T16:38:35.541Z,9.37
2022-10-24T16:41:03.780Z,9.77
2022-10-24T16:43:31.919Z,10.27
2022-10-24T16:46:00.202Z,10.03
2022-10-24T16:48:29.887Z,10.77
2022-10-24T16:50:58.007Z,12.70
2022-10-24T16:53:26.131Z,13.60
2022-10-24T16:55:55.732Z,12.13
2022-10-24T16:58:23.923Z,11.23
2022-10-24T17:00:52.197Z,11.23
2022-10-24T17:03:20.404Z,11.13
2022-10-24T17:05:51.861Z,10.50
2022-10-24T17:08:20.034Z,11.30
2022-10-24T17:10:48.193Z,11.23
2022-10-24T17:13:16.341Z,11.07
2022-10-24T17:15:44.415Z,11.37
2022-10-24T17:18:13.623Z,11.37
2022-10-24T17:20:44.185Z,10.97
2022-10-24T17:23:15.459Z,12.07
2022-10-24T17:25:43.704Z,11.73
2022-10-24T17:28:12.813Z,12.77
2022-10-24T17:30:41.142Z,12.23
2022-10-24T17:33:10.708Z,13.37
2022-10-24T17:35:41.828Z,12.00
2022-10-24T17:38:16.620Z,11.27
2022-10-24T17:40:45.781Z,12.13
2022-10-24T17:43:18.388Z,12.70
2022-10-24T17:45:47.163Z,13.07
2022-10-24T17:48:15.500Z,11.83
2022-10-24T17:50:43.738Z,12.83
2022-10-24T17:53:14.478Z,13.00
2022-10-24T17:55:47.155Z,13.37
2022-10-24T17:58:16.146Z,14.93
2022-10-24T18:00:44.801Z,16.23
2022-10-24T18:03:13.052Z,17.43
2022-10-24T18:05:41.182Z,19.17
2022-10-24T18:08:10.719Z,18.43
2022-10-24T18:10:40.378Z,17.07
2022-10-24T18:13:08.666Z,15.93
2022-10-24T18:15:37.258Z,15.13
2022-10-24T18:18:05.942Z,15.60
2022-10-24T18:20:34.837Z,15.13
2022-10-24T18:23:03.119Z,14.63
2022-10-24T18:25:31.292Z,15.40
2022-10-24T18:28:00.961Z,15.70
2022-10-24T18:30:29.102Z,17.50
2022-10-24T18:32:57.354Z,15.83
2022-10-24T18:35:27.487Z,15.40
2022-10-24T18:37:55.898Z,15.13
2022-10-24T18:40:24.751Z,14.17
2022-10-24T18:42:54.907Z,14.60
2022-10-24T18:45:26.514Z,13.03
2022-10-24T18:47:55.401Z,12.67
2022-10-24T18:50:24.659Z,13.37
2022-10-24T18:52:56.232Z,13.43
2022-10-24T18:55:25.866Z,12.57
2022-10-24T18:57:54.263Z,12.53
2022-10-24T19:00:24.653Z,13.53
2022-10-24T19:02:57.747Z,13.43
2022-10-24T19:05:28.195Z,12.47
2022-10-24T19:07:56.436Z,13.87
2022-10-24T19:10:26.177Z,12.97
2022-10-24T19:12:54.975Z,11.97
2022-10-24T19:15:25.510Z,11.70
2022-10-24T19:17:53.815Z,12.10
2022-10-24T19:20:22.974Z,12.47
2022-10-24T19:22:51.322Z,13.13
2022-10-24T19:25:20.850Z,12.53
2022-10-24T19:27:49.487Z,12.70
2022-10-24T19:30:17.819Z,13.37
2022-10-24T19:32:48.056Z,12.30
2022-10-24T19:35:17.428Z,11.87
2022-10-24T19:37:46.589Z,13.40
2022-10-24T19:40:14.992Z,13.80
2022-10-24T19:42:43.420Z,12.87
2022-10-24T19:45:12.259Z,14.03
2022-10-24T19:47:40.478Z,13.50
2022-10-24T19:50:12.656Z,15.13
2022-10-24T19:52:41.146Z,15.13
2022-10-24T19:55:09.566Z,14.30
2022-10-24T19:57:37.682Z,15.87
2022-10-24T20:00:06.572Z,15.53
2022-10-24T20:02:34.811Z,15.90
2022-10-24T20:05:03.189Z,16.20
2022-10-24T20:07:33.854Z,16.83
2022-10-24T20:10:02.123Z,18.23
2022-10-24T20:12:30.591Z,17.67
2022-10-24T20:14:58.734Z,18.13
2022-10-24T20:17:26.908Z,19.97
2022-10-24T20:19:55.117Z,19.63
2022-10-24T20:22:23.319Z,18.67
2022-10-24T20:24:52.813Z,19.70
2022-10-24T20:27:24.497Z,19.97
2022-10-24T20:29:53.078Z,18.70
2022-10-24T20:32:21.472Z,19.03
2022-10-24T20:34:49.651Z,18.27
2022-10-24T20:37:18.099Z,18.97
2022-10-24T20:39:46.260Z,19.17
2022-10-24T20:42:18.020Z,19.33
2022-10-24T20:44:46.396Z,19.07
2022-10-24T20:47:14.741Z,19.83
2022-10-24T20:49:42.922Z,20.80
2022-10-24T20:54:40.499Z,20.13
2022-10-24T20:57:08.802Z,20.83
2022-10-24T20:59:38.419Z,20.73
2022-10-24T21:02:08.337Z,20.37
2022-10-24T21:04:36.642Z,20.23
2022-10-24T21:07:05.091Z,20.67
2022-10-24T21:09:34.543Z,21.20
2022-10-24T21:12:03.112Z,20.33
2022-10-24T21:14:31.205Z,21.33
2022-10-24T21:17:01.173Z,21.37
2022-10-24T21:19:30.746Z,20.93
2022-10-24T21:21:58.994Z,21.57
2022-10-24T21:24:27.264Z,21.17
2022-10-24T21:26:55.601Z,22.53
2022-10-24T21:29:39.111Z,22.33
2022-10-24T21:32:08.776Z,23.77
2022-10-24T21:34:36.910Z,23.13
2022-10-24T21:37:05.424Z,23.63
2022-10-24T21:39:33.509Z,23.87
2022-10-24T21:42:01.725Z,23.67
2022-10-24T21:44:29.842Z,23.73
2022-10-24T21:46:58.323Z,23.40
2022-10-24T21:49:27.912Z,23.97
2022-10-24T21:51:56.331Z,23.37
2022-10-24T21:54:25.308Z,24.03
2022-10-24T21:56:53.616Z,23.23
2022-10-24T21:59:22.254Z,23.97
2022-10-24T22:01:51.413Z,24.57
2022-10-24T22:04:19.861Z,24.57
2022-10-24T22:06:49.593Z,23.90
2022-10-24T22:09:18.791Z,21.23
2022-10-24T22:11:47.091Z,23.00
2022-10-24T22:14:16.146Z,20.50
2022-10-24T22:16:46.131Z,22.40
2022-10-24T22:19:14.744Z,20.70
2022-10-24T22:21:44.041Z,21.63
2022-10-24T22:24:15.402Z,23.57
2022-10-24T22:26:43.880Z,22.80
2022-10-24T22:29:12.936Z,20.30
2022-10-24T22:31:42.079Z,21.30
2022-10-24T22:34:11.384Z,22.53
2022-10-24T22:36:48.905Z,19.93
2022-10-24T22:39:19.665Z,20.17
2022-10-24T22:41:48.793Z,19.77
2022-10-24T22:44:18.187Z,20.67
2022-10-24T22:47:04.237Z,21.40
2022-10-24T22:49:38.310Z,21.57
2022-10-24T22:52:07.131Z,20.23
2022-10-24T22:54:37.278Z,20.77
2022-10-24T22:57:06.678Z,21.67
2022-10-24T22:59:35.428Z,21.43
2022-10-24T23:02:06.709Z,19.43
2022-10-24T23:04:37.070Z,20.07
2022-10-24T23:07:11.493Z,20.33
2022-10-24T23:09:41.161Z,21.70
2022-10-24T23:12:11.739Z,23.43
2022-10-24T23:14:40.310Z,24.40
2022-10-24T23:17:09.188Z,25.40
2022-10-24T23:19:37.535Z,25.87
2022-10-24T23:22:10.381Z,27.47
2022-10-24T23:24:40.748Z,28.93
2022-10-24T23:27:19.439Z,28.37
2022-10-24T23:29:48.423Z,26.87
2022-10-24T23:32:21.030Z,28.07
2022-10-24T23:34:49.871Z,27.00
2022-10-24T23:37:23.116Z,28.17
2022-10-24T23:39:53.305Z,28.47
2022-10-24T23:42:22.003Z,30.03
2022-10-24T23:44:50.767Z,30.93
2022-10-24T23:47:25.992Z,31.53
2022-10-24T23:49:57.358Z,31.97
2022-10-24T23:52:27.525Z,32.00
2022-10-24T23:54:58.086Z,29.03
2022-10-24T23:57:26.913Z,29.73
2022-10-24T23:59:55.109Z,32.33
